Time;durP1;ratioP1;P1;durP2;ratioP2;P2;SDS_P1;SDS_P2;PMS_P1;PMS_P2;Temp;Humidity;BMP_temperature;BMP_pressure;BME280_temperature;BME280_humidity;BME280_pressure;Samples;Min_cycle;Max_cycle;Signal;HPM_P1;HPM_P2
2023/06/17 00:00:27;;;;;;;14.80;8.20;;;;;;;16.76;100.00;99979.17;186773;1234;43778;-59
2023/06/17 00:04:48;;;;;;;13.60;8.50;;;;;;;16.79;100.00;99974.46;187020;1234;43758;-59
2023/06/17 00:08:51;;;;;;;10.70;6.90;;;;;;;16.85;100.00;99969.20;187027;1235;43727;-61
2023/06/17 00:12:54;;;;;;;15.60;9.90;;;;;;;16.84;100.00;99964.30;187044;1234;57913;-61
2023/06/17 00:16:56;;;;;;;11.90;8.70;;;;;;;16.83;100.00;99959.90;186813;1235;43593;-61
2023/06/17 00:20:58;;;;;;;15.80;9.90;;;;;;;16.80;100.00;99954.65;187056;1234;43718;-60
2023/06/17 00:25:15;;;;;;;16.40;8.40;;;;;;;16.81;100.00;99951.40;186717;1235;43059;-60
2023/06/17 00:29:17;;;;;;;13.80;7.70;;;;;;;16.82;100.00;99949.11;187102;1234;43563;-61
2023/06/17 00:33:18;;;;;;;24.80;10.00;;;;;;;16.80;100.00;99944.50;186809;1235;58200;-59
2023/06/17 00:37:20;;;;;;;15.70;8.40;;;;;;;16.77;100.00;99938.20;187047;1234;43059;-62
2023/06/17 00:41:22;;;;;;;14.40;8.30;;;;;;;16.72;100.00;99934.11;187067;1234;43004;-59
2023/06/17 00:45:23;;;;;;;20.30;9.40;;;;;;;16.69;100.00;99931.77;186788;1234;42937;-61
2023/06/17 00:49:51;;;;;;;9.60;6.30;;;;;;;16.72;100.00;99929.71;187048;1234;43038;-60
2023/06/17 00:53:52;;;;;;;14.10;7.20;;;;;;;16.72;100.00;99930.21;186936;1234;58008;-65
2023/06/17 00:57:59;;;;;;;15.40;8.40;;;;;;;16.75;100.00;99930.90;186994;1235;42973;-61
2023/06/17 01:02:00;;;;;;;16.90;7.40;;;;;;;16.74;100.00;99930.13;187102;1234;42960;-60
2023/06/17 01:06:11;;;;;;;12.50;7.80;;;;;;;16.71;100.00;99927.03;187136;1234;43112;-62
2023/06/17 01:10:26;;;;;;;16.50;7.40;;;;;;;16.72;100.00;99925.59;186826;1234;43677;-62
2023/06/17 01:14:30;;;;;;;19.40;7.40;;;;;;;16.74;100.00;99925.13;186791;1238;58182;-60
2023/06/17 01:18:32;;;;;;;13.90;7.10;;;;;;;16.78;100.00;99925.00;187141;1234;42991;-61
2023/06/17 01:22:36;;;;;;;14.50;7.40;;;;;;;16.80;100.00;99924.07;187099;1234;43764;-61
2023/06/17 01:26:37;;;;;;;16.10;7.80;;;;;;;16.80;100.00;99928.18;186804;1234;42929;-60
2023/06/17 01:30:54;;;;;;;10.50;5.70;;;;;;;16.81;100.00;99930.23;187001;1237;43965;-59
2023/06/17 01:35:03;;;;;;;15.10;8.80;;;;;;;16.82;100.00;99935.14;186790;1234;58467;-61
2023/06/17 01:39:06;;;;;;;8.00;6.20;;;;;;;16.76;100.00;99930.40;186755;1234;43083;-59
2023/06/17 01:43:09;;;;;;;13.80;7.20;;;;;;;16.59;100.00;99931.73;186907;1234;42966;-60
2023/06/17 01:47:10;;;;;;;10.80;7.40;;;;;;;16.45;100.00;99933.00;187005;1234;43018;-61
2023/06/17 01:51:13;;;;;;;13.90;7.50;;;;;;;16.46;100.00;99927.96;187074;1234;42981;-63
2023/06/17 01:55:16;;;;;;;10.50;6.50;;;;;;;16.50;100.00;99927.31;186712;1234;58207;-61
2023/06/17 01:59:18;;;;;;;11.30;7.40;;;;;;;16.54;100.00;99928.64;186690;1234;43031;-60
2023/06/17 02:03:23;;;;;;;17.70;7.60;;;;;;;16.56;100.00;99929.98;186980;1234;43444;-60
2023/06/17 02:07:25;;;;;;;17.70;7.50;;;;;;;16.61;100.00;99926.90;187049;1234;43389;-59
2023/06/17 02:11:27;;;;;;;12.50;7.00;;;;;;;16.64;100.00;99932.13;187040;1234;43407;-62
2023/06/17 02:15:28;;;;;;;28.70;6.80;;;;;;;16.66;100.00;99933.69;186715;1234;58154;-59
2023/06/17 02:19:31;;;;;;;9.00;6.50;;;;;;;16.66;100.00;99930.80;186738;1234;43799;-60
2023/06/17 02:23:33;;;;;;;16.60;6.60;;;;;;;16.69;100.00;99927.92;186831;1234;42970;-62
2023/06/17 02:27:34;;;;;;;13.80;6.50;;;;;;;16.67;100.00;99925.94;187006;1238;43151;-61
2023/06/17 02:31:36;;;;;;;17.90;6.50;;;;;;;16.65;100.00;99928.60;187046;1234;42983;-61
2023/06/17 02:35:37;;;;;;;12.70;6.90;;;;;;;16.64;100.00;99927.66;187094;1234;57911;-62
2023/06/17 02:39:39;;;;;;;13.90;7.50;;;;;;;16.63;100.00;99928.80;186761;1234;43028;-60
2023/06/17 02:43:40;;;;;;;13.50;6.00;;;;;;;16.64;100.00;99934.30;187007;1234;43485;-60
2023/06/17 02:47:42;;;;;;;12.20;7.50;;;;;;;16.63;100.00;99937.44;187119;1234;43633;-59
2023/06/17 02:51:44;;;;;;;9.10;5.60;;;;;;;16.63;100.00;99937.19;187076;1234;43372;-59
2023/06/17 02:55:49;;;;;;;14.00;7.30;;;;;;;16.67;100.00;99937.88;187038;1235;58669;-60
2023/06/17 02:59:50;;;;;;;14.30;6.80;;;;;;;16.69;100.00;99937.14;187007;1234;43005;-61
2023/06/17 03:03:55;;;;;;;11.90;6.90;;;;;;;16.74;100.00;99938.36;186760;1234;43824;-63
2023/06/17 03:07:56;;;;;;;17.10;7.00;;;;;;;16.81;100.00;99935.98;187113;1234;43033;-58
2023/06/17 03:12:03;;;;;;;17.10;6.80;;;;;;;16.82;100.00;99936.20;186789;1236;43648;-60
2023/06/17 03:16:06;;;;;;;27.50;6.20;;;;;;;16.75;100.00;99931.51;186715;1234;58232;-59
2023/06/17 03:20:08;;;;;;;6.90;6.00;;;;;;;16.71;100.00;99932.07;186801;1234;43654;-60
2023/06/17 03:24:10;;;;;;;19.80;7.90;;;;;;;16.71;100.00;99934.19;187051;1235;43284;-59
2023/06/17 03:28:12;;;;;;;19.60;8.00;;;;;;;16.69;100.00;99934.55;186788;1234;43604;-59
2023/06/17 03:32:13;;;;;;;16.40;6.30;;;;;;;16.64;100.00;99934.27;187092;1234;43616;-64
2023/06/17 03:36:17;;;;;;;10.60;6.70;;;;;;;16.61;100.00;99931.44;187036;1234;58218;-65
2023/06/17 03:40:20;;;;;;;15.60;6.70;;;;;;;16.60;100.00;99933.69;186746;1234;43598;-61
2023/06/17 03:44:22;;;;;;;12.60;5.90;;;;;;;16.60;100.00;99934.69;187087;1234;42990;-63
2023/06/17 03:48:23;;;;;;;10.70;6.60;;;;;;;16.62;100.00;99935.56;187009;1234;43073;-61
2023/06/17 03:52:26;;;;;;;10.70;6.90;;;;;;;16.66;100.00;99936.04;186992;1234;42999;-60
2023/06/17 03:56:27;;;;;;;11.20;5.70;;;;;;;16.70;100.00;99936.83;186707;1234;58180;-59
2023/06/17 04:00:29;;;;;;;12.60;7.10;;;;;;;16.74;100.00;99941.45;186761;1234;43474;-59
2023/06/17 04:04:34;;;;;;;9.80;5.90;;;;;;;16.74;100.00;99940.75;187044;1234;42986;-60
2023/06/17 04:08:39;;;;;;;15.20;8.50;;;;;;;16.78;100.00;99940.83;187042;1234;43031;-60
2023/06/17 04:12:41;;;;;;;16.70;8.80;;;;;;;16.79;100.00;99941.52;186713;1234;43683;-59
2023/06/17 04:16:44;;;;;;;12.80;7.20;;;;;;;16.78;100.00;99939.84;186722;1234;58025;-62
2023/06/17 04:20:45;;;;;;;12.30;7.50;;;;;;;16.79;100.00;99939.81;186882;1234;43038;-60
2023/06/17 04:24:47;;;;;;;13.10;7.80;;;;;;;16.80;100.00;99944.25;187122;1234;43244;-60
2023/06/17 04:28:51;;;;;;;12.00;6.50;;;;;;;16.82;100.00;99941.25;186768;1234;43037;-61
2023/06/17 04:32:55;;;;;;;10.50;6.10;;;;;;;16.87;100.00;99945.14;186998;1234;43643;-65
2023/06/17 04:36:57;;;;;;;16.40;6.90;;;;;;;16.83;100.00;99947.25;186740;1234;59794;-62
2023/06/17 04:40:58;;;;;;;18.20;7.90;;;;;;;16.67;100.00;99943.44;186736;1234;43310;-61
2023/06/17 04:45:01;;;;;;;14.90;7.40;;;;;;;16.47;100.00;99947.66;186890;1234;42915;-61
2023/06/17 04:49:03;;;;;;;11.00;7.50;;;;;;;16.41;100.00;99948.45;186750;1234;43746;-60
2023/06/17 04:53:05;;;;;;;11.10;7.60;;;;;;;16.52;100.00;99951.40;187037;1234;43690;-61
2023/06/17 04:57:07;;;;;;;11.40;7.90;;;;;;;16.68;100.00;99949.46;187018;1234;57976;-60
2023/06/17 05:01:10;;;;;;;13.60;8.00;;;;;;;16.82;100.00;99950.84;186950;1234;43531;-60
2023/06/17 05:05:12;;;;;;;19.20;8.10;;;;;;;16.92;100.00;99959.06;186807;1234;43246;-60
2023/06/17 05:13:48;;;;;;;9.30;7.70;;;;;;;16.91;100.00;99958.60;187216;1235;89714;-57
2023/06/17 05:17:51;;;;;;;13.70;8.80;;;;;;;17.01;100.00;99958.48;187269;1232;57846;-61
2023/06/17 05:21:54;;;;;;;9.40;6.40;;;;;;;17.16;100.00;99955.13;187335;1232;43663;-62
2023/06/17 05:25:57;;;;;;;11.10;8.40;;;;;;;17.37;100.00;99955.64;187203;1232;43328;-60
2023/06/17 05:30:11;;;;;;;11.00;8.60;;;;;;;17.62;100.00;99955.08;187143;1232;43371;-60
2023/06/17 05:34:13;;;;;;;13.00;6.90;;;;;;;18.12;100.00;99952.40;187235;1232;173809;-63
2023/06/17 05:38:14;;;;;;;16.70;7.60;;;;;;;18.42;100.00;99951.43;187208;1232;57850;-62
2023/06/17 05:42:16;;;;;;;10.50;7.80;;;;;;;18.65;100.00;99950.55;187271;1232;43040;-61
2023/06/17 05:46:17;;;;;;;8.50;7.60;;;;;;;18.44;100.00;99954.54;187261;1234;42962;-62
2023/06/17 05:50:19;;;;;;;13.10;8.30;;;;;;;18.56;100.00;99952.09;187363;1232;43018;-60
2023/06/17 05:54:21;;;;;;;18.60;8.70;;;;;;;18.86;100.00;99952.89;187295;1232;42998;-60
2023/06/17 05:58:23;;;;;;;11.10;7.60;;;;;;;19.12;100.00;99951.23;187266;1232;59378;-62
2023/06/17 06:02:24;;;;;;;11.20;6.60;;;;;;;19.40;99.28;99955.04;187202;1232;43744;-61
2023/06/17 06:06:26;;;;;;;10.30;6.30;;;;;;;19.62;98.32;99959.11;187141;1232;43674;-61
2023/06/17 06:10:33;;;;;;;8.20;6.90;;;;;;;19.60;97.10;99961.04;187194;1237;43038;-62
2023/06/17 06:14:34;;;;;;;20.10;7.10;;;;;;;19.78;96.71;99961.61;187312;1232;43428;-64
2023/06/17 06:18:36;;;;;;;7.90;4.90;;;;;;;20.13;96.07;99959.19;187298;1232;58158;-61
2023/06/17 06:22:37;;;;;;;4.20;3.40;;;;;;;20.29;93.28;99959.16;187353;1232;43160;-61
2023/06/17 06:26:40;;;;;;;5.60;5.10;;;;;;;20.39;90.69;99959.34;187339;1232;42983;-61
2023/06/17 06:30:41;;;;;;;11.40;4.70;;;;;;;20.61;89.23;99962.45;187009;1232;43075;-59
2023/06/17 06:34:45;;;;;;;4.90;4.40;;;;;;;20.72;87.86;99957.45;187407;1232;43039;-61
2023/06/17 06:38:46;;;;;;;5.70;5.00;;;;;;;20.68;88.79;99960.82;187399;1232;59299;-60
2023/06/17 06:42:48;;;;;;;7.10;5.40;;;;;;;20.78;88.66;99963.64;187335;1232;43722;-60
2023/06/17 06:46:50;;;;;;;7.00;4.60;;;;;;;20.95;87.08;99967.00;187379;1232;43635;-62
2023/06/17 06:50:51;;;;;;;6.40;5.60;;;;;;;20.99;88.03;99968.46;187289;1231;43592;-63
2023/06/17 06:54:53;;;;;;;4.80;4.30;;;;;;;20.86;86.80;99970.16;187336;1232;43004;-62
2023/06/17 06:58:56;;;;;;;5.20;4.70;;;;;;;20.70;90.62;99975.73;187360;1232;59083;-59
2023/06/17 07:03:00;;;;;;;6.40;4.80;;;;;;;20.59;88.96;99976.16;187374;1232;42983;-60
2023/06/17 07:07:02;;;;;;;6.40;5.10;;;;;;;20.54;88.64;99975.88;187305;1231;43413;-61
2023/06/17 07:11:04;;;;;;;6.20;5.20;;;;;;;20.85;88.57;99973.98;187306;1231;43246;-59
2023/06/17 07:15:06;;;;;;;13.30;5.80;;;;;;;21.00;87.82;99968.43;187267;1232;43023;-59
2023/06/17 07:19:07;;;;;;;5.20;4.20;;;;;;;20.76;86.43;99976.76;187311;1231;58068;-61
2023/06/17 07:23:09;;;;;;;4.50;3.90;;;;;;;20.58;87.18;99979.65;187356;1232;43047;-59
2023/06/17 07:27:12;;;;;;;7.30;4.90;;;;;;;20.24;88.57;99979.73;187203;1232;43263;-59
2023/06/17 07:31:13;;;;;;;6.70;4.80;;;;;;;20.16;87.94;99983.34;187361;1232;43014;-60
2023/06/17 07:35:15;;;;;;;5.30;4.80;;;;;;;20.43;88.64;99978.02;187253;1232;43639;-62
2023/06/17 07:39:31;;;;;;;8.30;6.80;;;;;;;20.84;86.74;99972.73;187342;1232;59381;-60
2023/06/17 07:43:32;;;;;;;5.10;4.50;;;;;;;21.26;86.47;99963.02;187314;1232;43661;-61
2023/06/17 07:47:34;;;;;;;5.20;4.40;;;;;;;21.19;82.51;99969.58;187358;1232;43285;-60
2023/06/17 07:51:36;;;;;;;3.60;3.30;;;;;;;21.18;82.91;99968.41;187260;1232;42983;-61
2023/06/17 07:55:39;;;;;;;5.50;4.10;;;;;;;21.65;85.04;99964.80;187233;1232;43672;-65
2023/06/17 07:59:41;;;;;;;5.90;5.30;;;;;;;22.05;80.21;99967.71;187278;1232;59459;-59
2023/06/17 08:03:43;;;;;;;5.30;4.50;;;;;;;21.74;79.70;99967.15;187226;1232;43292;-59
2023/06/17 08:07:45;;;;;;;4.30;3.60;;;;;;;21.42;82.84;99963.69;187331;1232;42948;-62
2023/06/17 08:11:47;;;;;;;6.90;5.20;;;;;;;21.39;79.95;99965.23;187295;1232;43010;-60
2023/06/17 08:15:51;;;;;;;3.00;2.70;;;;;;;21.54;82.77;99963.42;187304;1232;43644;-59
2023/06/17 08:19:53;;;;;;;3.40;3.10;;;;;;;21.36;79.56;99969.66;187301;1232;58194;-62
2023/06/17 08:23:54;;;;;;;4.60;3.60;;;;;;;20.99;81.47;99964.31;187305;1232;42946;-64
2023/06/17 08:27:56;;;;;;;2.70;2.50;;;;;;;21.15;82.06;99963.20;187321;1232;43041;-61
2023/06/17 08:31:57;;;;;;;4.20;3.80;;;;;;;21.32;80.40;99962.20;187286;1232;43385;-60
2023/06/17 08:35:59;;;;;;;3.70;3.30;;;;;;;21.07;81.16;99963.88;187191;1232;43334;-60
2023/06/17 08:40:08;;;;;;;3.00;2.60;;;;;;;21.12;82.48;99968.43;187373;1232;58227;-59
2023/06/17 08:44:11;;;;;;;4.60;3.70;;;;;;;21.43;82.43;99966.15;187321;1232;43731;-62
2023/06/17 08:48:13;;;;;;;3.80;2.90;;;;;;;21.57;82.71;99968.46;187232;1232;43380;-59
2023/06/17 08:52:15;;;;;;;4.20;3.30;;;;;;;21.89;80.99;99964.29;187267;1232;43642;-60
2023/06/17 08:56:17;;;;;;;3.80;3.50;;;;;;;22.17;79.02;99962.78;187103;1232;43034;-61
2023/06/17 09:00:20;;;;;;;4.40;3.90;;;;;;;22.50;78.94;99960.34;187174;1233;58325;-59
2023/06/17 09:04:23;;;;;;;5.10;3.20;;;;;;;22.91;78.58;99962.05;187263;1232;43377;-63
2023/06/17 09:08:24;;;;;;;4.70;3.20;;;;;;;23.13;76.80;99971.46;187280;1232;43627;-61
2023/06/17 09:12:43;;;;;;;3.90;3.30;;;;;;;23.20;74.83;99969.46;187273;1232;43030;-59
2023/06/17 09:16:45;;;;;;;3.90;3.50;;;;;;;22.90;74.27;99970.61;186887;1232;43370;-64
2023/06/17 09:20:55;;;;;;;26.40;3.70;;;;;;;22.65;76.70;99965.36;187303;1232;59345;-62
2023/06/17 09:25:23;;;;;;;4.00;2.70;;;;;;;22.44;76.97;99967.48;187307;1231;43220;-59
2023/06/17 09:29:29;;;;;;;6.00;2.70;;;;;;;22.34;76.47;99966.23;187148;1234;43841;-61
2023/06/17 09:33:32;;;;;;;3.50;2.70;;;;;;;22.27;77.18;99964.51;187309;1231;43167;-61
2023/06/17 09:37:34;;;;;;;3.40;2.70;;;;;;;22.05;77.57;99959.50;187259;1231;43709;-64
2023/06/17 09:41:37;;;;;;;4.20;3.40;;;;;;;21.90;77.80;99961.63;187100;1236;57964;-63
2023/06/17 09:45:39;;;;;;;4.70;3.80;;;;;;;22.06;80.25;99959.13;187105;1232;43670;-62
2023/06/17 09:49:43;;;;;;;3.90;3.00;;;;;;;21.90;79.18;99955.50;187166;1232;43413;-62
2023/06/17 09:53:50;;;;;;;3.90;3.50;;;;;;;22.00;79.00;99951.80;187146;1232;43063;-62
2023/06/17 09:57:55;;;;;;;4.20;3.50;;;;;;;22.17;78.98;99953.98;187187;1232;42958;-63
2023/06/17 10:01:56;;;;;;;4.20;3.80;;;;;;;22.42;77.90;99954.23;187166;1232;57055;-63
2023/06/17 10:06:09;;;;;;;7.40;4.00;;;;;;;22.59;78.24;99953.20;187076;1232;43405;-63
2023/06/17 10:10:13;;;;;;;4.00;3.60;;;;;;;22.55;76.72;99949.33;187193;1232;43694;-63
2023/06/17 10:14:23;;;;;;;5.80;4.00;;;;;;;22.45;77.92;99947.85;187286;1232;43119;-63
2023/06/17 10:18:27;;;;;;;16.90;4.90;;;;;;;22.59;80.31;99950.45;187297;1232;43406;-63
2023/06/17 10:22:29;;;;;;;5.10;4.60;;;;;;;22.79;80.12;99946.80;187247;1236;59156;-62
2023/06/17 10:26:38;;;;;;;4.80;4.40;;;;;;;22.64;76.91;99941.92;187121;1232;43658;-62
2023/06/17 10:30:43;;;;;;;4.90;4.50;;;;;;;22.54;76.63;99938.92;187239;1232;43748;-63
2023/06/17 10:35:04;;;;;;;5.80;4.80;;;;;;;22.52;80.16;99940.96;187267;1232;43751;-63
2023/06/17 10:39:10;;;;;;;4.90;4.50;;;;;;;22.62;78.17;99938.69;187154;1232;43728;-63
2023/06/17 10:43:13;;;;;;;6.40;5.70;;;;;;;22.57;77.93;99934.36;187198;1232;58220;-63
2023/06/17 10:47:41;;;;;;;6.80;4.70;;;;;;;22.71;77.11;99932.52;187287;1232;43011;-64
2023/06/17 10:51:59;;;;;;;5.50;5.00;;;;;;;22.71;75.64;99927.76;187277;1232;42899;-63
2023/06/17 10:56:04;;;;;;;4.50;4.10;;;;;;;22.77;75.58;99924.52;187088;1232;43077;-63
2023/06/17 11:00:13;;;;;;;6.20;5.30;;;;;;;22.74;74.28;99925.58;187023;1232;43086;-64
2023/06/17 11:04:15;;;;;;;5.60;5.10;;;;;;;22.90;74.97;99921.59;187101;1232;58283;-59
2023/06/17 11:08:19;;;;;;;5.00;4.50;;;;;;;22.84;73.91;99917.58;187233;1232;43288;-60
2023/06/17 11:12:46;;;;;;;5.40;4.90;;;;;;;22.84;74.91;99916.02;186974;1231;43078;-60
2023/06/17 11:16:50;;;;;;;4.80;4.20;;;;;;;22.87;73.21;99911.77;186167;1234;43741;-87
2023/06/17 11:20:52;;;;;;;5.50;4.80;;;;;;;23.04;74.64;99909.48;186238;1234;43976;-88
2023/06/17 11:24:57;;;;;;;4.90;4.40;;;;;;;23.06;73.07;99905.40;186516;1233;59139;-86
2023/06/17 11:29:00;;;;;;;6.20;5.60;;;;;;;22.98;73.28;99903.77;186325;1233;43943;-88
2023/06/17 11:33:02;;;;;;;5.20;4.70;;;;;;;23.12;73.50;99901.14;186340;1237;44016;-87
2023/06/17 11:37:10;;;;;;;6.30;5.40;;;;;;;23.05;72.12;99899.28;186337;1233;43744;-91
2023/06/17 11:41:12;;;;;;;5.10;4.50;;;;;;;22.99;71.78;99897.17;186379;1233;43762;-89
2023/06/17 11:45:14;;;;;;;7.10;5.80;;;;;;;22.88;72.23;99896.19;186365;1235;59312;-89
2023/06/17 11:49:16;;;;;;;5.10;4.70;;;;;;;23.19;75.11;99895.90;186396;1233;43909;-88
2023/06/17 11:53:39;;;;;;;7.90;7.10;;;;;;;23.42;73.06;99893.00;186546;1233;43592;-89
2023/06/17 11:57:42;;;;;;;7.80;6.50;;;;;;;23.40;71.88;99890.92;186632;1233;44152;-87
2023/06/17 12:01:44;;;;;;;5.70;5.10;;;;;;;23.41;73.04;99885.98;186404;1234;43744;-90
2023/06/17 12:05:46;;;;;;;5.70;5.00;;;;;;;23.49;68.61;99881.08;186649;1233;60710;-89
2023/06/17 12:09:53;;;;;;;5.40;5.00;;;;;;;23.46;70.48;99877.84;186330;1233;43647;-90
2023/06/17 12:13:54;;;;;;;5.40;4.90;;;;;;;23.33;70.96;99876.20;186414;1235;43833;-88
2023/06/17 12:18:09;;;;;;;5.40;4.90;;;;;;;23.24;70.20;99875.41;186671;1233;43745;-88
2023/06/17 12:22:12;;;;;;;6.00;5.40;;;;;;;23.18;73.75;99875.95;186680;1234;44027;-90
2023/06/17 12:26:15;;;;;;;7.10;6.00;;;;;;;23.16;75.27;99866.35;186730;1233;58152;-90
2023/06/17 12:30:17;;;;;;;7.50;5.80;;;;;;;23.06;73.66;99871.77;186747;1233;43600;-89
2023/06/17 12:34:19;;;;;;;6.40;5.80;;;;;;;22.83;71.16;99871.89;186459;1233;43862;-88
2023/06/17 12:38:25;;;;;;;7.20;6.50;;;;;;;22.92;72.34;99867.42;186445;1233;43797;-88
2023/06/17 12:42:27;;;;;;;6.20;5.60;;;;;;;23.08;74.20;99865.37;186751;1233;43933;-87
2023/06/17 12:46:29;;;;;;;7.80;5.80;;;;;;;23.37;72.29;99864.69;186516;1233;60551;-88
2023/06/17 12:50:31;;;;;;;6.90;6.20;;;;;;;23.47;71.24;99858.47;186394;1234;43638;-90
2023/06/17 12:54:33;;;;;;;6.50;6.00;;;;;;;23.31;69.95;99858.68;186525;1233;43731;-89
2023/06/17 12:58:35;;;;;;;8.40;6.70;;;;;;;23.49;72.22;99860.13;186698;1233;43951;-89
2023/06/17 13:02:37;;;;;;;7.40;6.10;;;;;;;23.73;70.09;99853.73;186571;1234;43622;-91
2023/06/17 13:06:39;;;;;;;11.80;7.10;;;;;;;23.91;69.30;99854.51;186850;1233;57941;-89
2023/06/17 13:10:41;;;;;;;5.70;5.00;;;;;;;23.94;72.12;99850.55;186734;1234;43828;-88
2023/06/17 13:14:43;;;;;;;5.90;5.30;;;;;;;24.22;71.40;99847.92;186447;1234;43856;-89
2023/06/17 13:18:45;;;;;;;6.50;5.10;;;;;;;24.27;69.35;99851.86;186497;1233;43971;-89
2023/06/17 13:22:47;;;;;;;6.30;5.70;;;;;;;24.49;68.14;99848.98;186499;1234;43779;-89
2023/06/17 13:26:49;;;;;;;17.20;4.80;;;;;;;24.57;65.98;99846.50;186489;1233;57583;-88
2023/06/17 13:30:51;;;;;;;6.00;4.30;;;;;;;24.43;65.38;99840.52;186366;1233;44001;-90
2023/06/17 13:34:53;;;;;;;4.90;4.20;;;;;;;24.39;65.54;99837.73;186350;1234;44053;-87
2023/06/17 13:38:55;;;;;;;4.80;4.40;;;;;;;24.36;64.63;99841.74;186586;1234;44006;-90
2023/06/17 13:42:57;;;;;;;5.90;4.60;;;;;;;24.37;64.40;99840.64;186467;1233;43745;-88
2023/06/17 13:46:59;;;;;;;4.70;4.30;;;;;;;24.62;66.95;99835.35;186750;1233;57980;-89
2023/06/17 13:51:02;;;;;;;6.40;5.80;;;;;;;24.75;65.63;99836.29;186451;1233;43924;-90
2023/06/17 13:55:05;;;;;;;4.60;4.20;;;;;;;24.81;65.55;99839.13;186384;1233;43691;-88
2023/06/17 13:59:07;;;;;;;5.20;4.40;;;;;;;24.77;64.52;99835.02;186499;1234;44085;-89
2023/06/17 14:03:10;;;;;;;8.40;4.10;;;;;;;24.59;66.10;99832.75;186498;1233;43629;-89
2023/06/17 14:07:15;;;;;;;4.80;4.10;;;;;;;24.18;69.28;99840.09;186287;1233;59271;-89
2023/06/17 14:11:17;;;;;;;6.20;4.50;;;;;;;24.05;69.35;99840.30;186465;1235;43855;-89
2023/06/17 14:15:19;;;;;;;6.10;4.80;;;;;;;24.05;68.31;99847.07;186481;1234;43729;-89
2023/06/17 14:19:21;;;;;;;6.60;5.40;;;;;;;23.96;69.35;99847.80;186525;1233;43989;-89
2023/06/17 14:23:23;;;;;;;5.00;4.40;;;;;;;23.81;70.63;99848.42;186580;1233;43748;-88
2023/06/17 14:27:40;;;;;;;4.40;4.00;;;;;;;23.87;69.02;99851.05;186395;1233;59505;-89
2023/06/17 14:31:43;;;;;;;4.00;3.60;;;;;;;23.73;68.59;99858.64;186732;1233;43918;-88
2023/06/17 14:35:45;;;;;;;5.30;3.90;;;;;;;23.46;68.30;99863.15;186693;1233;43636;-88
2023/06/17 14:39:46;;;;;;;5.00;4.50;;;;;;;23.30;70.09;99868.23;186727;1233;43925;-87
2023/06/17 14:43:49;;;;;;;4.90;4.50;;;;;;;23.05;71.78;99871.95;186420;1233;43668;-90
2023/06/17 14:47:50;;;;;;;5.90;4.60;;;;;;;23.17;71.89;99872.90;186512;1234;59376;-89
2023/06/17 14:51:52;;;;;;;5.50;4.60;;;;;;;23.09;72.96;99870.79;186738;1233;43636;-89
2023/06/17 14:56:28;;;;;;;6.40;5.60;;;;;;;23.00;73.41;99864.17;186541;1237;43689;-89
2023/06/17 15:00:29;;;;;;;8.70;5.20;;;;;;;22.83;74.69;99862.69;185488;1241;43931;-89
2023/06/17 15:04:31;;;;;;;5.00;3.70;;;;;;;22.69;75.01;99859.05;185524;1241;44162;-90
2023/06/17 15:08:35;;;;;;;3.20;2.90;;;;;;;22.48;70.92;99852.00;185410;1242;58099;-89
2023/06/17 15:12:41;;;;;;;2.40;2.20;;;;;;;22.40;70.25;99844.52;185428;1241;43785;-88
2023/06/17 15:16:43;;;;;;;5.90;3.90;;;;;;;22.37;70.92;99843.11;185372;1241;43668;-90
2023/06/17 15:20:45;;;;;;;5.40;4.60;;;;;;;22.49;73.70;99845.41;185378;1241;43936;-85
2023/06/17 15:24:48;;;;;;;6.40;5.60;;;;;;;22.69;72.43;99843.54;185382;1241;43603;-88
2023/06/17 15:28:52;;;;;;;5.40;4.60;;;;;;;22.83;74.11;99841.73;185278;1241;59463;-90
2023/06/17 15:32:55;;;;;;;5.50;4.60;;;;;;;22.95;73.17;99841.20;185524;1241;43806;-89
2023/06/17 15:36:59;;;;;;;5.20;4.30;;;;;;;23.01;72.92;99838.77;186240;1233;43736;-90
2023/06/17 15:41:02;;;;;;;6.10;4.00;;;;;;;22.89;72.88;99842.83;186370;1233;43728;-91
2023/06/17 15:45:06;;;;;;;4.90;3.90;;;;;;;22.78;75.43;99842.98;186431;1233;43774;-89
2023/06/17 15:49:09;;;;;;;5.20;4.70;;;;;;;22.58;76.33;99842.91;186350;1234;57949;-90
2023/06/17 15:53:12;;;;;;;4.90;2.90;;;;;;;22.29;74.38;99848.27;186379;1234;43948;-91
2023/06/17 15:57:16;;;;;;;3.30;2.20;;;;;;;22.01;73.13;99851.31;186539;1234;43858;-89
2023/06/17 16:01:21;;;;;;;7.20;3.70;;;;;;;21.68;74.13;99849.55;186460;1234;43691;-90
2023/06/17 16:05:26;;;;;;;3.80;3.30;;;;;;;21.32;82.04;99856.17;186444;1234;43900;-90
2023/06/17 16:09:33;;;;;;;4.30;3.60;;;;;;;20.84;87.09;99864.69;186366;1234;58000;-91
2023/06/17 16:13:37;;;;;;;4.00;3.30;;;;;;;20.19;90.38;99866.20;186372;1234;43855;-89
2023/06/17 16:17:40;;;;;;;6.00;4.10;;;;;;;19.91;95.05;99874.16;186364;1234;43755;-89
2023/06/17 16:21:45;;;;;;;5.80;4.30;;;;;;;19.64;99.94;99884.55;186326;1237;43826;-89
2023/06/17 16:25:51;;;;;;;5.40;4.70;;;;;;;19.52;100.00;99887.81;186415;1233;43625;-88
2023/06/17 16:29:58;;;;;;;4.20;3.90;;;;;;;19.59;100.00;99892.27;186403;1234;58607;-89
2023/06/17 16:34:00;;;;;;;4.80;4.30;;;;;;;19.61;100.00;99897.48;186409;1234;43793;-90
2023/06/17 16:38:03;;;;;;;4.80;4.30;;;;;;;19.71;100.00;99892.70;186258;1233;44282;-87
2023/06/17 16:42:06;;;;;;;4.40;4.00;;;;;;;19.74;100.00;99890.67;186526;1234;43935;-90
2023/06/17 16:46:10;;;;;;;5.90;4.70;;;;;;;19.81;100.00;99895.30;186438;1233;43760;-89
2023/06/17 16:50:17;;;;;;;9.50;6.30;;;;;;;19.77;100.00;99899.91;186531;1234;60373;-89
2023/06/17 16:54:21;;;;;;;11.80;8.20;;;;;;;19.84;100.00;99892.96;186370;1234;43866;-89
2023/06/17 16:58:25;;;;;;;7.10;6.10;;;;;;;19.92;100.00;99893.61;186436;1234;43634;-86
2023/06/17 17:02:28;;;;;;;9.60;6.20;;;;;;;20.06;100.00;99894.02;186351;1234;44028;-85
2023/06/17 17:06:33;;;;;;;6.60;4.90;;;;;;;20.17;100.00;99895.73;186433;1233;43807;-90
2023/06/17 17:10:35;;;;;;;12.20;6.20;;;;;;;20.20;99.66;99896.58;186418;1234;60422;-90
2023/06/17 17:14:42;;;;;;;10.10;7.20;;;;;;;20.27;99.82;99893.83;186483;1233;43620;-88
2023/06/17 17:18:45;;;;;;;8.60;4.20;;;;;;;20.36;99.80;99893.17;186455;1234;44198;-90
2023/06/17 17:22:48;;;;;;;8.10;5.10;;;;;;;20.42;99.24;99890.79;186456;1234;43869;-90
2023/06/17 17:27:12;;;;;;;5.80;4.60;;;;;;;20.50;98.99;99888.16;186537;1234;44088;-91
2023/06/17 17:31:16;;;;;;;5.70;4.40;;;;;;;20.54;97.74;99887.15;186439;1233;59479;-89
2023/06/17 17:35:20;;;;;;;7.00;3.80;;;;;;;20.59;98.13;99895.19;185165;1234;1590911;-89
2023/06/17 17:39:24;;;;;;;3.90;3.50;;;;;;;20.66;98.44;99894.38;186375;1234;43790;-89
2023/06/17 17:43:27;;;;;;;8.20;3.50;;;;;;;20.74;96.79;99888.73;186720;1233;43788;-88
2023/06/17 17:47:33;;;;;;;6.50;4.30;;;;;;;20.68;96.47;99886.20;186376;1234;43666;-89
2023/06/17 17:51:35;;;;;;;5.90;4.40;;;;;;;20.68;97.34;99886.00;186329;1234;59496;-90
2023/06/17 17:55:38;;;;;;;5.60;3.90;;;;;;;20.74;97.78;99891.05;186373;1234;43841;-90
2023/06/17 17:59:41;;;;;;;5.20;4.00;;;;;;;20.75;96.50;99893.27;186394;1233;44607;-90
2023/06/17 18:03:44;;;;;;;3.80;3.40;;;;;;;20.73;94.72;99894.45;186362;1234;43768;-89
2023/06/17 18:07:47;;;;;;;4.10;3.50;;;;;;;20.69;93.78;99901.80;186363;1234;43645;-90
2023/06/17 18:11:54;;;;;;;5.40;4.30;;;;;;;20.62;93.15;99904.52;186652;1233;59586;-88
2023/06/17 18:15:57;;;;;;;4.70;4.30;;;;;;;20.45;93.13;99905.93;186366;1237;43450;-90
2023/06/17 18:20:00;;;;;;;6.90;4.50;;;;;;;20.30;93.86;99905.95;186394;1234;43970;-89
2023/06/17 18:24:05;;;;;;;5.00;4.60;;;;;;;20.14;95.65;99906.85;186441;1233;43714;-89
2023/06/17 18:28:08;;;;;;;7.90;6.60;;;;;;;20.04;98.47;99907.41;186646;1233;43706;-89
2023/06/17 18:32:11;;;;;;;7.10;6.40;;;;;;;19.80;100.00;99906.87;186407;1234;58579;-88
2023/06/17 18:36:17;;;;;;;6.80;6.20;;;;;;;19.48;100.00;99909.52;186423;1234;43850;-90
2023/06/17 18:40:22;;;;;;;8.40;6.40;;;;;;;19.38;100.00;99909.09;186682;1234;43846;-88
2023/06/17 18:44:26;;;;;;;5.80;5.20;;;;;;;19.32;100.00;99912.07;186594;1233;44016;-90
2023/06/17 18:48:32;;;;;;;6.20;5.50;;;;;;;19.31;100.00;99916.45;186475;1234;43649;-88